MMX weather

Malmö Sturup Airport
Malmö, Skåne län, Sweden

Public forecast

Using degrees Celsius for public forecast. Weather courtesy of forecast.io.

Current aviation weather report (METAR) for Malmö Sturup Airport

Retrieved 2019/11/16 22:20 UTC (40 minutes ago):

ESMS 162220Z 23020G31KT 9999 OVC013 07/05 Q1007

Aviation forecast (TAF) for Malmö Sturup Airport

Retrieved 2019/11/16 18:00 UTC (5 hours ago):

TAF ESMS 161728Z 1618/1718 21015KT 6000 BKN012 TEMPO 1618/1621 22020G30KT 4000 RADZ BKN008 TEMPO 1621/1624 22020G30KT 4000 RADZ BKN015 BECMG 1700/1703 SCT015 BECMG 1709/1712 15005KT